Time;durP1;ratioP1;P1;durP2;ratioP2;P2;SDS_P1;SDS_P2;PMS_P1;PMS_P2;Temp;Humidity;BMP_temperature;BMP_pressure;BME280_temperature;BME280_humidity;BME280_pressure;Samples;Min_cycle;Max_cycle;Signal;HPM_P1;HPM_P2
2022/06/01 00:01:32;;;;;;;10.38;7.60;;;;;;;20.29;83.37;100408.44;4992558;28;20057;-74
2022/06/01 00:03:57;;;;;;;10.65;7.80;;;;;;;20.31;83.75;100417.13;4993183;28;20519;-71
2022/06/01 00:06:23;;;;;;;10.32;8.25;;;;;;;20.29;83.19;100408.44;4992639;28;20038;-74
2022/06/01 00:08:49;;;;;;;9.77;8.45;;;;;;;20.07;84.49;100407.63;4992242;28;20033;-72
2022/06/01 00:11:16;;;;;;;9.70;7.47;;;;;;;20.13;84.80;100425.97;4992492;28;20037;-74
2022/06/01 00:13:42;;;;;;;11.95;8.15;;;;;;;20.11;84.65;100425.97;4992214;28;20540;-72
2022/06/01 00:16:09;;;;;;;11.93;7.28;;;;;;;20.06;85.13;100418.97;4972432;28;20023;-75
2022/06/01 00:18:36;;;;;;;10.23;7.70;;;;;;;19.78;85.30;100372.72;4991957;28;20050;-75
2022/06/01 00:21:01;;;;;;;11.07;7.78;;;;;;;19.79;84.84;100370.97;4990224;28;20026;-76
2022/06/01 00:23:27;;;;;;;11.88;7.82;;;;;;;19.96;85.26;100412.88;4991895;28;20676;-75
2022/06/01 00:25:52;;;;;;;15.15;8.07;;;;;;;19.83;85.38;100402.44;4991833;28;20104;-76
2022/06/01 00:28:18;;;;;;;9.55;8.00;;;;;;;19.50;85.73;100359.72;4991734;28;20455;-75
2022/06/01 00:30:44;;;;;;;9.65;7.30;;;;;;;19.84;85.90;100413.81;4991900;28;20436;-79
2022/06/01 00:33:11;;;;;;;10.27;8.05;;;;;;;19.77;85.65;100397.19;4991401;28;20042;-80
2022/06/01 00:35:37;;;;;;;11.95;7.95;;;;;;;19.85;86.13;100413.78;4990479;28;20038;-79
2022/06/01 00:38:03;;;;;;;11.73;7.30;;;;;;;19.86;85.47;100410.31;4991234;28;20025;-76
2022/06/01 00:40:29;;;;;;;11.30;8.05;;;;;;;19.82;84.84;100398.03;4991775;28;20031;-75
2022/06/01 00:42:58;;;;;;;10.30;7.68;;;;;;;19.98;84.79;100422.50;4991845;28;20026;-77
2022/06/01 00:45:25;;;;;;;15.02;8.10;;;;;;;19.97;84.56;100409.41;4991810;28;20736;-76
2022/06/01 00:47:51;;;;;;;9.05;7.80;;;;;;;20.00;84.28;100404.13;4990821;28;20046;-78
2022/06/01 00:50:22;;;;;;;10.63;7.95;;;;;;;19.93;84.91;100399.81;4991085;28;20026;-71
2022/06/01 00:52:55;;;;;;;8.88;7.60;;;;;;;19.99;83.75;100400.66;4991551;28;20109;-72
2022/06/01 00:55:44;;;;;;;9.30;7.68;;;;;;;20.03;83.55;100412.88;4991476;28;20034;-75
2022/06/01 00:58:41;;;;;;;14.52;8.20;;;;;;;19.96;83.66;100391.94;4989339;28;20121;-72
2022/06/01 01:01:09;;;;;;;11.63;7.72;;;;;;;19.85;84.48;100403.31;4950211;29;20051;-75
2022/06/01 01:03:37;;;;;;;11.30;7.77;;;;;;;19.56;85.51;100385.88;4950562;29;20047;-72
2022/06/01 01:06:11;;;;;;;13.05;8.30;;;;;;;19.21;86.51;100368.44;4950256;29;20282;-71
2022/06/01 01:08:37;;;;;;;9.60;7.70;;;;;;;19.19;88.36;100400.72;4950279;29;20047;-72
2022/06/01 01:11:05;;;;;;;9.65;7.88;;;;;;;19.22;88.31;100398.97;4949952;29;20196;-75
2022/06/01 01:13:30;;;;;;;10.40;8.95;;;;;;;19.23;88.54;100410.34;4950179;29;20039;-73
2022/06/01 01:15:56;;;;;;;11.27;8.25;;;;;;;19.27;88.21;100398.13;4949921;29;20066;-71
2022/06/01 01:18:26;;;;;;;12.50;8.82;;;;;;;19.17;88.60;100369.31;4950207;29;20046;-75
2022/06/01 01:21:26;;;;;;;13.52;8.52;;;;;;;19.38;88.21;100404.22;4949976;29;20035;-74
2022/06/01 01:24:08;;;;;;;10.18;8.40;;;;;;;19.27;88.03;100411.22;4892960;29;20048;-76
2022/06/01 01:26:36;;;;;;;11.45;8.52;;;;;;;19.24;88.46;100409.47;4879882;29;20035;-74
2022/06/01 01:29:09;;;;;;;13.70;8.25;;;;;;;19.28;87.87;100402.47;4893015;29;20052;-71
2022/06/01 01:31:35;;;;;;;10.32;8.70;;;;;;;19.09;88.35;100376.31;4892745;29;20131;-74
2022/06/01 01:34:00;;;;;;;9.10;7.85;;;;;;;19.01;87.89;100385.88;4892478;29;20133;-73
2022/06/01 01:36:31;;;;;;;12.27;8.45;;;;;;;19.03;87.80;100392.88;4890242;29;20101;-70
2022/06/01 01:39:07;;;;;;;10.65;8.35;;;;;;;19.17;87.76;100398.09;4910507;29;20031;-73
2022/06/01 01:41:50;;;;;;;12.20;8.32;;;;;;;19.20;87.09;100394.63;4910933;29;20083;-73
2022/06/01 01:44:21;;;;;;;10.18;7.43;;;;;;;19.20;87.12;100392.88;4910586;29;20095;-73
2022/06/01 01:46:48;;;;;;;12.23;8.70;;;;;;;19.11;88.13;100398.09;4910793;29;20119;-72
2022/06/01 01:49:21;;;;;;;10.75;8.10;;;;;;;19.07;88.02;100389.38;4911096;29;20055;-74
2022/06/01 01:51:47;;;;;;;12.52;8.40;;;;;;;18.94;87.89;100368.44;4910651;29;20119;-73
2022/06/01 01:54:42;;;;;;;10.85;8.05;;;;;;;19.17;87.49;100392.00;4910506;29;20044;-75
2022/06/01 01:57:26;;;;;;;14.00;7.90;;;;;;;18.92;86.76;100351.00;4910969;29;20087;-73
2022/06/01 02:00:10;;;;;;;10.15;7.88;;;;;;;19.20;86.41;100379.81;4940148;28;20117;-70
2022/06/01 02:03:02;;;;;;;12.55;8.05;;;;;;;19.18;85.87;100376.31;4990274;28;20036;-73
2022/06/01 02:08:54;;;;;;;11.23;7.72;;;;;;;19.03;85.82;100392.88;4990222;28;20420;-74
2022/06/01 02:14:26;;;;;;;10.50;7.72;;;;;;;18.82;87.32;100391.06;4989783;28;20049;-73
2022/06/01 02:17:05;;;;;;;10.95;7.93;;;;;;;18.75;87.55;100390.19;4989984;28;20090;-74
2022/06/01 02:19:36;;;;;;;12.63;8.85;;;;;;;18.78;87.12;100396.28;4989880;28;20053;-74
2022/06/01 02:22:03;;;;;;;12.25;8.70;;;;;;;18.66;88.29;100398.00;4990573;28;20073;-74
2022/06/01 02:24:29;;;;;;;9.27;8.07;;;;;;;18.68;88.74;100404.13;4990358;28;20034;-74
2022/06/01 02:26:56;;;;;;;11.65;8.82;;;;;;;18.82;87.06;100403.28;4990679;28;20034;-72
2022/06/01 02:29:37;;;;;;;10.82;8.30;;;;;;;18.90;86.72;100388.44;4990361;28;20037;-75
2022/06/01 02:32:04;;;;;;;11.43;7.85;;;;;;;19.03;86.14;100403.34;4990607;28;20027;-75
2022/06/01 02:34:31;;;;;;;13.93;8.35;;;;;;;19.04;86.62;100409.44;4989762;28;20524;-72
2022/06/01 02:36:58;;;;;;;12.63;8.60;;;;;;;19.05;86.51;100412.06;4990239;28;20038;-76
2022/06/01 02:39:27;;;;;;;10.90;8.27;;;;;;;18.83;86.66;100382.34;4989233;28;20027;-73
2022/06/01 02:42:30;;;;;;;11.45;7.65;;;;;;;18.83;86.52;100377.13;4990361;28;20516;-75
2022/06/01 02:45:05;;;;;;;10.73;7.53;;;;;;;19.05;85.70;100413.78;4988608;28;20062;-78
2022/06/01 02:47:33;;;;;;;14.88;7.70;;;;;;;19.04;85.22;100415.56;4989769;28;20029;-79
2022/06/01 02:50:00;;;;;;;10.63;7.40;;;;;;;18.89;84.50;100410.25;4989418;28;20042;-81
2022/06/01 02:52:27;;;;;;;10.80;7.65;;;;;;;18.73;83.92;100398.91;4993836;28;20460;-74
2022/06/01 02:54:53;;;;;;;13.27;8.75;;;;;;;18.85;85.16;100416.34;4994149;28;20085;-74
2022/06/01 02:57:19;;;;;;;10.80;8.23;;;;;;;18.89;85.43;100416.38;4993546;28;20026;-74
2022/06/01 02:59:45;;;;;;;12.35;7.75;;;;;;;18.97;85.93;100426.00;4993952;28;20148;-72
2022/06/01 03:02:11;;;;;;;15.45;7.88;;;;;;;18.91;85.85;100419.88;4993546;28;20042;-72
2022/06/01 03:04:39;;;;;;;10.63;7.60;;;;;;;18.91;86.10;100432.09;4993927;28;20030;-73
2022/06/01 03:07:06;;;;;;;14.25;8.00;;;;;;;18.88;86.61;100424.22;4993836;28;20129;-73
2022/06/01 03:09:32;;;;;;;11.55;8.10;;;;;;;18.87;86.04;100430.31;4993936;28;20033;-73
2022/06/01 03:11:58;;;;;;;11.13;8.30;;;;;;;18.86;85.77;100429.41;4993348;28;20042;-72
2022/06/01 03:14:23;;;;;;;14.45;8.20;;;;;;;18.92;85.63;100442.56;4993684;28;20046;-74
2022/06/01 03:16:49;;;;;;;13.80;8.10;;;;;;;18.86;85.70;100424.19;4993573;28;20081;-72
2022/06/01 03:19:15;;;;;;;13.80;8.30;;;;;;;18.98;85.12;100441.69;4993341;28;20085;-74
2022/06/01 03:21:41;;;;;;;14.05;8.45;;;;;;;18.88;85.40;100430.31;4993797;28;20085;-77
2022/06/01 03:24:08;;;;;;;12.65;8.13;;;;;;;18.77;86.18;100424.19;4993164;28;20057;-72
2022/06/01 03:26:34;;;;;;;14.00;8.50;;;;;;;18.86;86.97;100437.28;4993076;28;20084;-71
2022/06/01 03:28:59;;;;;;;13.23;8.80;;;;;;;18.86;87.43;100437.28;4993125;28;20030;-74
2022/06/01 03:31:25;;;;;;;11.15;8.63;;;;;;;18.92;87.62;100439.94;4993343;28;20053;-75
2022/06/01 03:33:51;;;;;;;12.18;8.18;;;;;;;18.52;86.91;100381.41;4993185;28;20057;-74
2022/06/01 03:36:16;;;;;;;15.32;8.00;;;;;;;18.94;86.01;100441.69;4993036;28;20428;-75
2022/06/01 03:38:42;;;;;;;11.27;8.30;;;;;;;19.06;86.83;100447.81;4993465;28;20033;-75
2022/06/01 03:41:07;;;;;;;11.40;8.85;;;;;;;19.05;87.13;100443.47;4992762;28;20027;-72
2022/06/01 03:45:55;;;;;;;11.35;8.82;;;;;;;19.01;87.63;100453.91;4992976;28;20512;-75
2022/06/01 03:46:22;;;;;;;14.38;8.82;;;;;;;18.91;88.05;100451.25;4993088;28;20278;-77
2022/06/01 03:48:49;;;;;;;10.90;7.88;;;;;;;18.72;88.66;100439.84;4992841;28;20042;-72
2022/06/01 03:51:15;;;;;;;11.10;9.38;;;;;;;18.73;89.47;100446.84;4992706;28;20101;-77
2022/06/01 03:53:40;;;;;;;11.15;9.15;;;;;;;18.78;89.78;100451.19;4992437;28;20084;-75
2022/06/01 03:56:07;;;;;;;11.43;8.73;;;;;;;18.83;89.73;100452.97;4992871;28;20030;-75
2022/06/01 03:58:33;;;;;;;11.48;9.23;;;;;;;18.86;89.57;100452.09;4992825;28;20037;-75
2022/06/01 04:00:58;;;;;;;11.32;9.05;;;;;;;18.83;89.81;100452.97;4992109;28;20031;-75
2022/06/01 04:03:24;;;;;;;13.57;9.77;;;;;;;18.83;90.11;100455.59;4992578;28;20486;-72
2022/06/01 04:05:50;;;;;;;10.40;8.85;;;;;;;18.69;90.28;100432.00;4992799;28;20485;-73
2022/06/01 04:08:15;;;;;;;11.57;9.13;;;;;;;18.57;90.66;100427.59;4992150;28;20073;-75
2022/06/01 04:10:46;;;;;;;12.60;8.98;;;;;;;18.65;91.71;100451.16;4992396;28;20023;-72
2022/06/01 04:13:13;;;;;;;11.45;8.38;;;;;;;18.70;92.35;100448.56;4992651;28;20042;-74
2022/06/01 04:15:39;;;;;;;11.30;8.77;;;;;;;18.74;92.36;100452.94;4992235;28;20516;-76
2022/06/01 04:18:05;;;;;;;11.30;8.52;;;;;;;18.80;92.61;100457.31;4992315;28;20036;-72
2022/06/01 04:20:30;;;;;;;12.02;9.48;;;;;;;18.75;92.50;100439.00;4990757;28;20034;-74
2022/06/01 04:22:58;;;;;;;11.32;9.10;;;;;;;18.81;93.45;100451.22;4991962;28;20049;-72
2022/06/01 04:25:24;;;;;;;16.02;9.20;;;;;;;18.66;94.94;100431.13;4992064;28;20452;-73
2022/06/01 04:27:50;;;;;;;12.80;9.02;;;;;;;18.70;95.90;100449.44;4992058;28;20042;-74
2022/06/01 04:30:17;;;;;;;10.63;9.43;;;;;;;18.75;97.15;100439.00;4992196;28;20083;-71
2022/06/01 04:32:46;;;;;;;13.57;8.82;;;;;;;18.71;96.69;100439.84;4991810;28;20092;-72
2022/06/01 04:35:12;;;;;;;12.95;9.27;;;;;;;18.88;96.41;100438.16;4991647;28;20059;-73
2022/06/01 04:37:37;;;;;;;12.40;8.13;;;;;;;18.90;96.04;100443.38;4992102;28;20034;-75
2022/06/01 04:40:04;;;;;;;11.60;8.98;;;;;;;18.94;94.56;100426.00;4992016;28;20374;-71
2022/06/01 04:42:29;;;;;;;11.10;9.05;;;;;;;19.04;93.76;100433.88;4990713;28;20468;-73
2022/06/01 04:44:55;;;;;;;11.07;8.05;;;;;;;19.02;93.99;100429.50;4991899;28;20105;-74
2022/06/01 04:47:20;;;;;;;14.00;8.57;;;;;;;19.28;93.32;100440.00;4991677;28;20413;-75
2022/06/01 04:49:46;;;;;;;10.75;8.60;;;;;;;19.16;93.66;100438.22;4991573;28;20382;-73
2022/06/01 04:52:15;;;;;;;9.50;7.88;;;;;;;19.09;94.48;100431.25;4991785;28;20117;-75
2022/06/01 04:54:40;;;;;;;11.82;8.38;;;;;;;19.29;94.64;100444.38;4973350;28;20042;-75
2022/06/01 04:57:06;;;;;;;14.20;8.05;;;;;;;19.38;94.44;100443.50;4990564;28;20030;-75
2022/06/01 04:59:32;;;;;;;12.88;9.02;;;;;;;19.40;95.22;100437.38;4991578;28;20428;-71
2022/06/01 05:01:58;;;;;;;11.98;8.77;;;;;;;19.37;95.26;100420.81;4991869;28;20038;-72
2022/06/01 05:04:25;;;;;;;12.18;8.10;;;;;;;19.51;95.59;100429.50;4991238;28;20071;-75
2022/06/01 05:06:51;;;;;;;14.20;9.15;;;;;;;19.60;95.14;100444.38;4991690;28;20121;-75
2022/06/01 05:09:16;;;;;;;12.20;8.63;;;;;;;19.69;95.17;100443.50;4991195;28;20034;-73
2022/06/01 05:11:42;;;;;;;10.68;7.57;;;;;;;19.79;94.87;100446.94;4991490;28;20030;-73
2022/06/01 05:14:08;;;;;;;13.43;7.97;;;;;;;19.75;94.14;100422.53;4990497;28;20105;-75
2022/06/01 05:16:33;;;;;;;13.98;7.82;;;;;;;19.99;93.61;100454.81;4991672;28;20018;-73
2022/06/01 05:18:59;;;;;;;11.35;7.85;;;;;;;20.09;94.09;100451.28;4990819;28;20117;-75
2022/06/01 05:21:25;;;;;;;9.90;6.72;;;;;;;20.09;93.71;100442.53;4990704;28;20030;-74
2022/06/01 05:23:50;;;;;;;10.93;7.13;;;;;;;20.26;93.00;100450.38;4991401;28;20019;-72
2022/06/01 05:26:16;;;;;;;11.27;5.90;;;;;;;20.32;91.31;100451.22;5005308;28;20487;-75
2022/06/01 05:28:41;;;;;;;8.82;5.93;;;;;;;20.51;89.88;100461.63;4991062;28;20030;-75
2022/06/01 05:31:09;;;;;;;9.07;5.85;;;;;;;20.41;87.48;100446.81;4991280;28;20382;-72
2022/06/01 05:33:36;;;;;;;7.10;5.00;;;;;;;20.33;87.43;100471.31;4990830;28;20527;-74
2022/06/01 05:36:03;;;;;;;8.85;5.00;;;;;;;20.36;89.16;100470.44;4972667;28;20077;-73
2022/06/01 05:38:28;;;;;;;7.72;5.10;;;;;;;20.26;88.46;100443.41;4989623;28;20022;-75
2022/06/01 05:40:54;;;;;;;9.32;5.03;;;;;;;20.45;88.96;100461.66;4990853;28;20037;-74
2022/06/01 05:43:21;;;;;;;5.25;4.45;;;;;;;20.66;86.81;100469.44;4990913;28;20026;-74
2022/06/01 05:45:46;;;;;;;6.93;4.60;;;;;;;20.62;86.64;100443.22;4990813;28;20022;-74
2022/06/01 05:48:17;;;;;;;6.07;4.30;;;;;;;20.82;86.42;100470.28;4990578;28;20026;-74
2022/06/01 05:51:03;;;;;;;8.05;4.55;;;;;;;20.89;86.48;100475.50;4989450;28;20034;-71
2022/06/01 05:53:30;;;;;;;6.50;4.10;;;;;;;21.01;84.31;100457.91;5007762;28;20100;-75
2022/06/01 05:55:55;;;;;;;8.52;4.35;;;;;;;21.25;82.05;100474.38;5007710;28;20111;-72
2022/06/01 05:58:24;;;;;;;7.60;4.00;;;;;;;21.31;81.14;100466.47;5007733;28;20046;-72
2022/06/01 06:00:51;;;;;;;7.50;4.05;;;;;;;21.53;79.48;100486.44;5007405;28;20136;-75
2022/06/01 06:03:18;;;;;;;10.90;3.97;;;;;;;21.49;83.39;100475.94;4991421;28;20045;-72
2022/06/01 06:08:29;;;;;;;5.93;4.40;;;;;;;21.41;82.96;100450.63;5007969;28;20140;-72
2022/06/01 06:10:55;;;;;;;7.25;4.55;;;;;;;21.50;83.83;100461.06;5007274;28;20481;-75
2022/06/01 06:13:20;;;;;;;6.50;3.95;;;;;;;21.54;80.89;100462.78;5007494;28;20042;-75
2022/06/01 06:15:46;;;;;;;8.15;4.28;;;;;;;21.62;81.93;100482.00;5007540;28;20050;-71
2022/06/01 06:18:13;;;;;;;6.47;4.28;;;;;;;21.55;81.34;100451.38;5007627;28;20452;-76
2022/06/01 06:20:43;;;;;;;8.00;4.50;;;;;;;21.84;80.76;100470.44;4988136;28;20030;-72
2022/06/01 06:23:11;;;;;;;5.38;4.07;;;;;;;21.76;79.68;100463.50;5005272;28;20472;-72
2022/06/01 06:25:37;;;;;;;8.30;4.53;;;;;;;21.90;80.06;100468.59;4994084;28;20117;-72
2022/06/01 06:28:03;;;;;;;7.65;3.80;;;;;;;22.04;79.02;100473.72;4994343;28;20034;-72
2022/06/01 06:30:29;;;;;;;7.05;4.32;;;;;;;22.07;80.34;100450.03;4993875;28;20034;-75
2022/06/01 06:32:54;;;;;;;13.88;5.07;;;;;;;22.36;77.57;100472.50;4994622;28;20394;-73
2022/06/01 06:35:20;;;;;;;7.13;3.97;;;;;;;22.42;77.51;100477.72;4994290;28;20030;-72
2022/06/01 06:37:45;;;;;;;7.22;4.05;;;;;;;22.34;77.71;100476.91;4994496;28;20102;-76
2022/06/01 06:40:12;;;;;;;5.93;4.22;;;;;;;22.44;78.19;100477.69;4994193;28;20038;-75
2022/06/01 06:42:38;;;;;;;7.40;4.68;;;;;;;22.47;77.75;100480.31;4994625;28;20049;-72
2022/06/01 06:45:04;;;;;;;7.70;4.63;;;;;;;22.65;76.76;100487.09;4994223;28;20022;-74
2022/06/01 06:47:32;;;;;;;5.63;4.30;;;;;;;22.73;77.43;100474.72;4993788;28;20109;-73
2022/06/01 06:49:58;;;;;;;6.85;4.00;;;;;;;22.85;72.74;100473.66;4993953;28;20023;-73
2022/06/01 06:52:24;;;;;;;4.97;3.85;;;;;;;22.94;75.77;100468.28;4993005;28;20097;-72
2022/06/01 06:54:49;;;;;;;5.28;4.10;;;;;;;23.03;75.68;100476.91;4993531;28;20117;-74
2022/06/01 06:57:15;;;;;;;6.47;3.80;;;;;;;23.10;74.44;100490.00;4993867;28;20382;-72
2022/06/01 06:59:40;;;;;;;7.53;3.90;;;;;;;23.19;74.97;100493.41;4993711;28;20052;-72
2022/06/01 07:02:06;;;;;;;6.80;3.92;;;;;;;23.18;72.17;100487.28;4993798;28;20033;-75
2022/06/01 07:04:32;;;;;;;5.93;3.85;;;;;;;23.17;70.79;100488.16;4994058;28;20035;-72
2022/06/01 07:06:57;;;;;;;5.57;3.75;;;;;;;23.16;70.87;100477.66;4993276;28;20034;-74
2022/06/01 07:09:23;;;;;;;5.70;3.70;;;;;;;23.38;72.29;100486.97;4993190;28;20022;-75
2022/06/01 07:11:48;;;;;;;4.75;3.47;;;;;;;23.56;74.14;100477.00;4992942;28;20034;-72
2022/06/01 07:14:14;;;;;;;5.68;4.40;;;;;;;23.67;72.68;100477.69;4993641;28;20050;-75
2022/06/01 07:16:39;;;;;;;6.03;4.13;;;;;;;23.58;73.98;100470.81;4993254;28;20396;-72
2022/06/01 07:19:06;;;;;;;5.88;4.10;;;;;;;23.73;73.12;100471.47;4992187;28;20042;-72
2022/06/01 07:21:36;;;;;;;7.38;3.97;;;;;;;23.90;68.32;100471.13;4979503;28;20545;-73
2022/06/01 07:24:05;;;;;;;6.28;3.22;;;;;;;24.00;68.70;100472.78;4992918;28;20144;-73
2022/06/01 07:26:37;;;;;;;6.07;3.50;;;;;;;24.17;64.02;100472.44;4993406;28;20093;-72
2022/06/01 07:29:04;;;;;;;5.63;2.97;;;;;;;24.18;63.52;100441.66;4993433;28;20631;-75
2022/06/01 07:31:30;;;;;;;7.20;3.35;;;;;;;24.47;61.99;100469.22;4993084;28;20485;-76
2022/06/01 07:33:58;;;;;;;5.90;3.72;;;;;;;24.56;66.54;100461.09;4993110;28;20029;-72
2022/06/01 07:36:24;;;;;;;5.55;3.33;;;;;;;24.50;65.57;100458.56;4992432;28;20037;-71
2022/06/01 07:44:19;;;;;;;6.65;3.80;;;;;;;24.65;65.37;100452.13;4992905;28;20076;-72
2022/06/01 07:46:45;;;;;;;6.20;3.88;;;;;;;24.60;69.12;100451.34;4993027;28;20034;-71
2022/06/01 07:49:11;;;;;;;5.93;3.90;;;;;;;24.62;66.91;100446.91;4992931;28;20030;-73
2022/06/01 07:51:37;;;;;;;6.25;3.95;;;;;;;24.65;67.23;100449.50;5007070;28;20093;-74
2022/06/01 07:54:04;;;;;;;6.70;4.32;;;;;;;24.59;66.56;100437.28;4992944;28;20033;-71
2022/06/01 07:56:30;;;;;;;9.15;4.43;;;;;;;24.75;68.97;100452.81;4992984;28;20049;-72
2022/06/01 07:58:55;;;;;;;8.07;4.22;;;;;;;24.91;68.41;100450.69;4992934;28;20042;-75
2022/06/01 08:01:25;;;;;;;7.90;4.00;;;;;;;25.13;72.23;100446.63;4992462;28;20469;-74
2022/06/01 08:03:56;;;;;;;6.13;4.40;;;;;;;25.10;69.39;100427.38;4992720;28;20042;-72
2022/06/01 08:06:23;;;;;;;7.13;3.85;;;;;;;25.31;71.52;100436.53;4992996;28;20053;-72
2022/06/01 08:08:49;;;;;;;7.30;4.13;;;;;;;25.59;65.71;100443.81;4992605;28;20541;-72
2022/06/01 08:11:15;;;;;;;6.40;4.35;;;;;;;25.79;65.09;100438.84;4992461;28;20026;-72
2022/06/01 08:13:40;;;;;;;5.28;3.55;;;;;;;25.90;63.61;100433.28;4989397;28;20038;-74
2022/06/01 08:16:07;;;;;;;7.95;4.00;;;;;;;26.05;62.62;100434.63;4991725;28;20045;-74
2022/06/01 08:18:33;;;;;;;6.15;3.85;;;;;;;25.82;62.43;100390.28;4991781;28;20122;-74
2022/06/01 08:20:59;;;;;;;6.75;4.18;;;;;;;26.20;61.48;100433.38;4990778;28;20082;-73
2022/06/01 08:23:27;;;;;;;5.45;4.03;;;;;;;26.08;62.25;100409.91;4990651;28;20034;-73
2022/06/01 08:25:53;;;;;;;11.63;4.10;;;;;;;26.14;61.21;100415.91;4991699;28;20045;-72
2022/06/01 08:28:19;;;;;;;6.63;4.22;;;;;;;26.19;60.52;100428.97;4991425;28;20109;-74
2022/06/01 08:30:45;;;;;;;5.88;4.05;;;;;;;26.28;62.12;100436.66;4989625;28;20109;-74
2022/06/01 08:33:12;;;;;;;10.48;4.80;;;;;;;26.30;63.63;100439.25;4987146;28;20492;-74
2022/06/01 08:35:41;;;;;;;9.43;4.53;;;;;;;26.36;61.27;100430.28;4990039;28;20026;-73
2022/06/01 08:38:07;;;;;;;8.48;4.70;;;;;;;26.45;62.78;100427.34;4985871;28;20137;-73
2022/06/01 08:41:03;;;;;;;7.47;4.38;;;;;;;26.44;63.72;100433.56;4991553;28;20539;-73
2022/06/01 08:43:44;;;;;;;8.57;4.13;;;;;;;26.41;65.90;100417.78;4991133;28;20028;-73
2022/06/01 08:46:12;;;;;;;7.82;4.05;;;;;;;26.73;60.69;100427.38;4990122;28;20085;-73
2022/06/01 08:48:46;;;;;;;7.15;4.18;;;;;;;26.81;59.44;100406.00;4991734;28;20080;-73
2022/06/01 08:51:12;;;;;;;8.70;4.28;;;;;;;26.96;61.25;100428.47;4991645;28;20393;-73
2022/06/01 08:53:38;;;;;;;5.60;4.00;;;;;;;27.02;59.23;100411.53;4990187;28;20030;-74
2022/06/01 08:56:13;;;;;;;7.88;4.30;;;;;;;27.12;59.33;100415.59;4991251;28;20042;-74
2022/06/01 08:58:47;;;;;;;8.13;4.50;;;;;;;27.05;57.82;100419.38;4991041;28;20029;-74
2022/06/01 09:01:47;;;;;;;6.93;4.57;;;;;;;27.18;59.93;100410.09;4994249;28;20081;-74
2022/06/01 09:04:25;;;;;;;6.40;4.57;;;;;;;26.95;57.50;100350.78;4967964;28;20046;-78
2022/06/01 09:07:03;;;;;;;7.65;4.40;;;;;;;27.38;58.01;100403.28;4967706;28;20125;-75
2022/06/01 09:09:59;;;;;;;10.25;5.10;;;;;;;27.60;62.31;100414.91;4968646;28;20055;-77
2022/06/01 09:12:25;;;;;;;8.38;4.30;;;;;;;27.70;57.02;100402.19;4968066;28;20026;-79
2022/06/01 09:14:56;;;;;;;8.38;4.40;;;;;;;27.80;58.48;100386.78;4968070;28;20506;-79
2022/06/01 09:17:22;;;;;;;6.82;3.97;;;;;;;27.96;59.19;100408.31;4968194;28;20057;-80
2022/06/01 09:22:38;;;;;;;8.48;3.83;;;;;;;28.14;56.69;100395.31;4965361;28;20138;-78
2022/06/01 09:25:06;;;;;;;6.10;4.13;;;;;;;28.12;55.24;100389.22;4962812;28;20034;-79
2022/06/01 09:27:54;;;;;;;6.07;4.28;;;;;;;28.12;55.64;100390.06;4966027;28;20149;-78
2022/06/01 09:30:42;;;;;;;9.70;4.68;;;;;;;27.91;55.34;100363.41;4967899;28;20162;-78
2022/06/01 09:33:26;;;;;;;7.90;4.22;;;;;;;27.97;55.41;100340.22;4967654;28;20077;-75
2022/06/01 09:36:15;;;;;;;5.80;4.20;;;;;;;28.36;56.47;100390.06;4967727;28;20035;-77
2022/06/01 09:38:47;;;;;;;7.38;4.70;;;;;;;28.33;54.44;100384.88;4968022;28;20062;-73
2022/06/01 09:41:31;;;;;;;9.48;6.25;;;;;;;28.40;54.92;100375.75;4984126;28;20485;-78
2022/06/01 09:43:59;;;;;;;8.77;4.53;;;;;;;28.52;54.45;100387.69;4989998;28;20030;-74
2022/06/01 09:46:48;;;;;;;9.65;6.53;;;;;;;28.72;53.91;100386.91;4991023;28;20101;-74
2022/06/01 09:49:31;;;;;;;6.38;3.63;;;;;;;28.61;52.67;100386.44;4988700;28;20507;-77
2022/06/01 09:52:02;;;;;;;6.30;3.65;;;;;;;28.48;54.62;100388.72;4988333;28;20038;-78
2022/06/01 09:54:33;;;;;;;7.63;4.28;;;;;;;28.61;53.77;100395.28;4988360;28;20026;-77
2022/06/01 09:57:18;;;;;;;6.38;3.88;;;;;;;28.94;54.21;100383.41;4987845;28;20053;-78
2022/06/01 10:08:14;;;;;;;6.32;4.10;;;;;;;29.58;52.74;100368.31;4987381;28;20531;-72
2022/06/01 10:10:54;;;;;;;6.45;4.45;;;;;;;29.84;53.55;100365.34;4989022;28;20022;-72
2022/06/01 10:13:28;;;;;;;7.80;4.30;;;;;;;30.06;50.29;100367.06;4988542;28;20117;-72
2022/06/01 10:16:00;;;;;;;8.43;4.80;;;;;;;30.04;54.09;100344.13;4989154;28;20061;-73
2022/06/01 10:18:30;;;;;;;9.80;4.55;;;;;;;30.24;52.68;100368.00;4989933;28;20033;-75
2022/06/01 10:21:15;;;;;;;6.70;4.25;;;;;;;30.45;49.70;100375.91;4985859;28;20041;-75
2022/06/01 10:23:49;;;;;;;8.82;4.50;;;;;;;30.69;48.96;100368.56;4988758;28;20049;-73
2022/06/01 10:26:34;;;;;;;11.20;4.38;;;;;;;30.85;51.47;100371.34;4989116;28;20042;-76
2022/06/01 10:29:05;;;;;;;5.63;3.80;;;;;;;30.88;46.75;100371.19;4989954;28;20571;-76
2022/06/01 10:31:47;;;;;;;9.18;3.92;;;;;;;31.02;47.52;100364.28;4989325;28;20026;-73
2022/06/01 10:34:45;;;;;;;9.23;4.10;;;;;;;31.06;47.78;100357.88;4988947;28;20019;-73
2022/06/01 10:37:28;;;;;;;6.20;4.05;;;;;;;31.29;46.63;100354.94;4989961;28;20027;-75
2022/06/01 10:40:12;;;;;;;6.50;4.03;;;;;;;31.48;45.23;100353.09;4988780;28;20057;-78
2022/06/01 10:45:36;;;;;;;8.73;4.50;;;;;;;31.49;44.23;100337.03;4989362;28;20547;-75
2022/06/01 10:48:16;;;;;;;4.80;3.70;;;;;;;31.45;44.02;100336.34;4988901;28;20121;-76
2022/06/01 10:50:52;;;;;;;6.50;3.60;;;;;;;31.41;44.27;100345.41;4988792;28;20528;-74
2022/06/01 10:53:21;;;;;;;6.05;4.35;;;;;;;31.74;48.28;100343.75;4985903;28;20197;-74
2022/06/01 10:55:48;;;;;;;9.07;3.80;;;;;;;31.82;42.86;100338.00;4989082;28;20508;-74
2022/06/01 10:58:25;;;;;;;8.10;4.15;;;;;;;31.87;46.14;100333.28;4988627;28;20249;-73
2022/06/01 11:01:08;;;;;;;7.03;4.03;;;;;;;31.81;43.86;100326.44;5002459;28;20050;-74
2022/06/01 11:03:43;;;;;;;6.57;4.13;;;;;;;32.16;46.66;100334.31;4988872;28;20029;-74
2022/06/01 11:06:08;;;;;;;6.28;3.90;;;;;;;32.28;46.11;100340.84;4988759;28;20034;-74
2022/06/01 11:08:48;;;;;;;8.85;4.60;;;;;;;31.99;47.44;100340.63;4988504;28;20030;-73
2022/06/01 11:11:37;;;;;;;9.73;4.22;;;;;;;31.77;46.72;100339.09;4988594;28;20405;-74
2022/06/01 11:14:28;;;;;;;7.38;5.10;;;;;;;31.62;47.90;100343.41;4991862;28;20493;-75
2022/06/01 11:17:02;;;;;;;15.18;6.07;;;;;;;31.25;58.81;100345.34;4991586;28;20062;-74
2022/06/01 11:19:43;;;;;;;26.20;7.95;;;;;;;31.02;67.69;100367.84;4991640;28;20041;-76
2022/06/01 11:22:29;;;;;;;6.72;3.78;;;;;;;29.74;55.68;100342.75;4992792;28;20041;-74
2022/06/01 11:25:14;;;;;;;7.35;4.78;;;;;;;28.25;58.90;100353.28;4991742;28;20498;-76
2022/06/01 11:28:10;;;;;;;7.10;4.90;;;;;;;28.21;61.42;100349.03;4990789;28;20029;-77
2022/06/01 11:31:03;;;;;;;6.97;5.45;;;;;;;28.21;64.43;100363.19;4991103;28;20033;-77
2022/06/01 11:33:55;;;;;;;7.68;4.70;;;;;;;27.98;68.39;100349.91;4950096;29;20047;-76
2022/06/01 11:36:57;;;;;;;7.35;4.63;;;;;;;28.05;70.33;100354.06;4948625;29;20046;-76
2022/06/01 11:39:52;;;;;;;6.20;4.38;;;;;;;28.06;61.65;100346.06;4947931;29;20035;-76
2022/06/01 11:42:40;;;;;;;5.90;4.13;;;;;;;28.15;65.83;100342.19;4949715;29;20086;-76
2022/06/01 11:45:22;;;;;;;6.15;3.88;;;;;;;28.25;62.69;100329.41;4950363;29;20115;-76
2022/06/01 11:48:00;;;;;;;6.03;3.58;;;;;;;28.17;54.11;100303.16;4950714;29;20041;-76
2022/06/01 11:50:35;;;;;;;6.20;4.03;;;;;;;28.45;62.50;100330.41;4949343;29;20058;-77
2022/06/01 11:53:07;;;;;;;8.82;4.80;;;;;;;28.50;64.41;100297.47;4950356;29;20550;-76
2022/06/01 11:55:36;;;;;;;7.43;5.28;;;;;;;28.91;62.86;100327.72;4956397;29;20647;-76
2022/06/01 11:58:14;;;;;;;9.37;5.33;;;;;;;29.14;69.27;100322.28;4948603;29;20086;-77
2022/06/01 12:00:51;;;;;;;7.00;5.28;;;;;;;29.29;65.56;100326.09;4950173;29;20038;-77
2022/06/01 12:03:17;;;;;;;7.93;5.25;;;;;;;29.19;60.60;100312.31;4946945;29;20038;-79
2022/06/01 12:06:43;;;;;;;16.52;6.97;;;;;;;29.05;66.77;100328.00;4950157;29;20031;-77
2022/06/01 12:09:16;;;;;;;11.30;5.13;;;;;;;28.74;66.52;100323.97;4875415;29;20037;-76